Time;durP1;ratioP1;P1;durP2;ratioP2;P2;SDS_P1;SDS_P2;PMS_P1;PMS_P2;Temp;Humidity;BMP_temperature;BMP_pressure;BME280_temperature;BME280_humidity;BME280_pressure;Samples;Min_cycle;Max_cycle;Signal;HPM_P1;HPM_P2
2022/02/04 00:07:01;;;;;;;5.93;2.35;;;6.80;83.10;;;;;;5031967;28;20171;-70
2022/02/04 00:10:00;;;;;;;8.02;2.50;;;6.80;83.10;;;;;;5012178;28;20063;-70
2022/02/04 00:21:20;;;;;;;2.31;1.23;;;6.80;83.10;;;;;;3164438;28;10003157;-68
2022/02/04 00:23:48;;;;;;;5.18;2.70;;;6.80;83.10;;;;;;3626025;28;10001597;-70
2022/02/04 00:26:20;;;;;;;4.55;1.95;;;6.80;83.10;;;;;;5005621;28;20156;-69
2022/02/04 00:28:54;;;;;;;6.07;2.38;;;6.70;83.20;;;;;;5005235;28;21940;-70
2022/02/04 00:31:29;;;;;;;6.78;2.47;;;6.70;83.20;;;;;;5006258;28;20056;-69
2022/02/04 00:34:01;;;;;;;6.97;1.83;;;6.70;83.30;;;;;;5002725;28;20500;-70
2022/02/04 00:36:40;;;;;;;6.93;2.70;;;6.70;83.40;;;;;;5020792;28;20071;-68
2022/02/04 00:39:11;;;;;;;6.35;2.15;;;6.70;83.40;;;;;;5008103;28;20475;-70
2022/02/04 00:41:41;;;;;;;7.90;2.72;;;6.70;83.40;;;;;;5008371;28;20048;-69
2022/02/04 00:44:17;;;;;;;;;;;6.70;83.50;;;;;;5009017;28;20049;-69
2022/02/04 00:46:56;;;;;;;4.72;1.73;;;6.70;83.50;;;;;;5007387;28;20479;-69
2022/02/04 00:49:25;;;;;;;6.47;2.70;;;6.70;83.50;;;;;;5008830;28;20049;-69
2022/02/04 00:52:00;;;;;;;6.13;2.85;;;6.80;83.50;;;;;;5005986;28;20677;-69
2022/02/04 00:54:42;;;;;;;6.20;2.40;;;6.80;83.60;;;;;;5008544;28;20045;-67
2022/02/04 00:57:17;;;;;;;6.90;2.75;;;6.80;83.60;;;;;;5008128;28;20037;-70
2022/02/04 01:13:40;;;;;;;7.88;2.90;;;6.70;84.00;;;;;;5013461;28;21583;-68
2022/02/04 01:27:06;;;;;;;5.28;2.78;;;6.80;84.30;;;;;;5020963;28;20087;-68
2022/02/04 01:29:44;;;;;;;5.55;2.70;;;6.80;84.40;;;;;;5022717;28;20439;-68
2022/02/04 01:32:11;;;;;;;6.78;2.65;;;6.80;84.40;;;;;;5024546;28;21963;-69
2022/02/04 01:34:38;;;;;;;8.23;3.10;;;6.80;84.40;;;;;;5032469;28;20053;-69
2022/02/04 01:37:05;;;;;;;7.05;3.60;;;6.80;84.50;;;;;;5035491;28;20505;-71
2022/02/04 01:39:32;;;;;;;6.40;2.63;;;6.70;84.50;;;;;;5036294;28;20063;-70
2022/02/04 01:42:00;;;;;;;7.97;3.28;;;6.70;84.50;;;;;;5033246;28;20243;-70
2022/02/04 01:44:30;;;;;;;5.90;2.97;;;6.80;84.50;;;;;;5033539;28;20581;-69
2022/02/04 01:46:58;;;;;;;7.13;2.85;;;6.80;84.50;;;;;;5034650;28;20045;-69
2022/02/04 01:49:27;;;;;;;5.60;2.75;;;6.80;84.50;;;;;;5032553;28;20037;-68
2022/02/04 01:51:55;;;;;;;6.50;2.72;;;6.70;84.50;;;;;;5032795;28;20678;-69
2022/02/04 01:54:23;;;;;;;5.72;2.80;;;6.80;84.50;;;;;;5033014;28;20052;-69
2022/02/04 01:56:50;;;;;;;8.10;2.70;;;6.80;84.60;;;;;;5032957;28;20052;-70
2022/02/04 01:59:18;;;;;;;5.30;2.60;;;6.70;84.50;;;;;;5032982;28;20045;-69
2022/02/04 02:01:44;;;;;;;6.75;3.15;;;6.80;84.50;;;;;;5007542;28;20045;-70
2022/02/04 02:04:14;;;;;;;8.82;2.60;;;6.70;84.50;;;;;;5032521;28;20051;-68
2022/02/04 02:06:44;;;;;;;8.50;2.63;;;6.70;84.50;;;;;;5033977;28;20045;-70
2022/02/04 02:09:12;;;;;;;6.15;2.85;;;6.70;84.50;;;;;;5032569;28;20497;-68
2022/02/04 02:11:39;;;;;;;6.55;2.70;;;6.70;84.50;;;;;;5032614;28;20047;-68
2022/02/04 02:14:10;;;;;;;5.00;2.42;;;6.70;84.40;;;;;;5033096;28;20044;-68
2022/02/04 02:33:03;;;;;;;7.03;3.42;;;6.70;84.50;;;;;;5034002;28;20039;-68
2022/02/04 02:34:28;;;;;;;5.90;3.00;;;6.70;84.90;;;;;;5033424;28;20427;-69
2022/02/04 02:43:04;;;;;;;7.00;2.78;;;6.70;85.20;;;;;;5033641;28;20049;-68
2022/02/04 02:45:50;;;;;;;4.95;2.28;;;6.70;85.20;;;;;;5037173;28;20047;-68
2022/02/04 02:48:34;;;;;;;5.10;2.45;;;6.70;85.20;;;;;;5030701;28;20763;-69
2022/02/04 02:54:00;;;;;;;6.30;2.80;;;6.70;85.20;;;;;;5029523;28;20057;-69
2022/02/04 02:59:44;;;;;;;5.93;2.58;;;6.70;85.20;;;;;;5112881;27;20951;-69
2022/02/04 03:02:11;;;;;;;7.00;2.80;;;6.70;85.20;;;;;;5100812;27;20071;-68
2022/02/04 03:04:38;;;;;;;6.38;2.90;;;6.70;85.10;;;;;;5103729;27;20047;-70
2022/02/04 03:07:05;;;;;;;6.53;2.58;;;6.70;85.10;;;;;;5103351;27;20847;-69
2022/02/04 03:09:32;;;;;;;6.25;2.70;;;6.60;85.00;;;;;;5101568;27;20044;-69
2022/02/04 03:11:59;;;;;;;6.05;2.03;;;6.70;85.00;;;;;;5107709;27;20074;-69
2022/02/04 03:14:27;;;;;;;6.93;2.58;;;6.60;84.90;;;;;;5103599;27;20064;-69
2022/02/04 03:16:57;;;;;;;6.00;2.38;;;6.60;84.90;;;;;;5103923;27;20048;-69
2022/02/04 03:19:24;;;;;;;6.20;2.35;;;6.70;84.80;;;;;;5119005;27;20450;-70
2022/02/04 03:21:51;;;;;;;5.82;2.17;;;6.70;84.80;;;;;;5102656;27;20043;-69
2022/02/04 03:24:22;;;;;;;5.72;2.42;;;6.60;84.70;;;;;;5103453;27;20070;-69
2022/02/04 03:26:52;;;;;;;5.45;2.13;;;6.60;84.60;;;;;;5104307;27;20058;-68
2022/02/04 03:29:25;;;;;;;6.40;2.67;;;6.70;84.60;;;;;;5103230;27;20044;-70
2022/02/04 03:31:56;;;;;;;5.00;2.05;;;6.70;84.50;;;;;;5103851;27;20519;-68
2022/02/04 03:34:25;;;;;;;6.60;2.55;;;6.60;84.40;;;;;;5099930;27;20305;-69
2022/02/04 03:36:52;;;;;;;4.85;1.80;;;6.70;84.30;;;;;;5101630;27;20047;-69
2022/02/04 03:39:18;;;;;;;7.43;3.67;;;6.70;84.30;;;;;;5102840;27;20040;-69
2022/02/04 03:41:45;;;;;;;6.53;2.33;;;6.70;84.20;;;;;;5101994;27;20761;-69
2022/02/04 03:44:12;;;;;;;7.15;2.35;;;6.70;84.20;;;;;;5105181;27;20044;-69
2022/02/04 03:46:39;;;;;;;6.90;3.10;;;6.70;84.10;;;;;;5103901;27;20508;-70
2022/02/04 03:49:06;;;;;;;5.57;1.83;;;6.70;84.10;;;;;;5103046;27;20039;-69
2022/02/04 03:51:35;;;;;;;3.80;1.90;;;6.70;84.10;;;;;;5103729;27;20050;-69
2022/02/04 03:54:02;;;;;;;4.07;2.00;;;6.70;84.00;;;;;;5104290;27;20040;-69
2022/02/04 03:56:29;;;;;;;5.30;2.20;;;6.70;84.10;;;;;;5104627;27;21647;-69
2022/02/04 03:58:56;;;;;;;5.88;2.40;;;6.70;84.00;;;;;;5119986;27;20075;-69
2022/02/04 04:01:22;;;;;;;5.13;1.98;;;6.70;84.00;;;;;;5120267;27;20035;-69
2022/02/04 04:03:49;;;;;;;5.10;2.38;;;6.70;83.90;;;;;;5113862;27;20116;-69
2022/02/04 04:06:17;;;;;;;4.75;1.95;;;6.70;84.00;;;;;;5124411;27;20046;-68
2022/02/04 04:08:45;;;;;;;3.60;1.73;;;6.70;84.00;;;;;;5120376;27;20444;-69
2022/02/04 04:11:14;;;;;;;5.82;2.30;;;6.70;84.00;;;;;;5099084;27;20090;-70
2022/02/04 04:13:40;;;;;;;4.72;1.88;;;6.70;84.00;;;;;;5094337;27;20050;-70
2022/02/04 04:16:07;;;;;;;5.35;1.95;;;6.70;84.00;;;;;;5110571;27;20588;-69
2022/02/04 04:18:34;;;;;;;6.70;1.63;;;6.70;83.90;;;;;;5078635;27;20761;-70
2022/02/04 04:21:02;;;;;;;5.18;1.70;;;6.70;83.90;;;;;;5016883;27;20044;-69
2022/02/04 04:23:29;;;;;;;3.40;1.14;;;6.70;83.90;;;;;;310509;28;10022669;-69
2022/02/04 04:25:57;;;;;;;3.67;1.58;;;6.70;84.00;;;;;;5036302;28;20041;-69
2022/02/04 04:28:24;;;;;;;3.33;1.38;;;6.70;84.00;;;;;;5036493;28;20045;-68
2022/02/04 04:30:51;;;;;;;3.72;1.50;;;6.70;84.00;;;;;;5035573;28;20899;-69
2022/02/04 04:33:18;;;;;;;3.83;1.38;;;6.70;83.90;;;;;;5031957;28;20066;-69
2022/02/04 04:35:45;;;;;;;3.83;1.77;;;6.70;83.90;;;;;;5035684;28;20060;-69
2022/02/04 04:38:21;;;;;;;4.65;1.83;;;6.70;83.90;;;;;;5034653;28;20048;-69
2022/02/04 04:41:06;;;;;;;7.88;1.63;;;6.70;83.90;;;;;;5035284;28;20525;-69
2022/02/04 04:43:53;;;;;;;4.40;1.83;;;6.70;83.90;;;;;;5033720;28;20567;-71
2022/02/04 04:46:48;;;;;;;4.90;1.60;;;6.70;83.90;;;;;;5034576;28;20067;-69
2022/02/04 05:30:40;;;;;;;3.10;1.23;;;6.70;84.00;;;;;;4969836;28;20080;-70
2022/02/04 05:33:08;;;;;;;4.10;1.80;;;6.70;84.10;;;;;;5018135;28;20056;-69
2022/02/04 05:35:36;;;;;;;5.78;2.20;;;6.70;84.00;;;;;;5033704;28;20131;-69
2022/02/04 05:38:04;;;;;;;3.75;1.75;;;6.70;84.10;;;;;;5034313;28;20040;-69
2022/02/04 05:40:39;;;;;;;3.92;1.90;;;6.70;84.00;;;;;;5026373;28;20045;-69
2022/02/04 05:43:15;;;;;;;4.95;1.63;;;6.70;84.00;;;;;;5028347;28;20153;-69
2022/02/04 05:45:50;;;;;;;2.95;1.63;;;6.70;84.00;;;;;;5027510;28;20051;-69
2022/02/04 05:48:19;;;;;;;3.08;1.38;;;6.70;84.00;;;;;;5028959;28;20570;-69
2022/02/04 05:50:55;;;;;;;4.20;1.48;;;6.70;84.00;;;;;;5025576;28;20077;-68
2022/02/04 05:53:27;;;;;;;2.95;1.25;;;6.70;83.90;;;;;;5024580;28;21679;-69
2022/02/04 05:56:03;;;;;;;6.35;1.60;;;6.70;84.00;;;;;;5026794;28;20068;-70
2022/02/04 05:58:38;;;;;;;5.22;1.85;;;6.70;83.90;;;;;;5027874;28;20053;-70
2022/02/04 06:01:23;;;;;;;3.35;1.58;;;6.70;83.90;;;;;;5022463;28;20049;-68
2022/02/04 06:04:02;;;;;;;3.53;1.60;;;6.70;84.00;;;;;;5025757;28;20052;-69
2022/02/04 06:12:27;;;;;;;4.65;1.85;;;6.70;84.00;;;;;;5025618;28;20064;-68
2022/02/04 06:15:08;;;;;;;3.50;1.67;;;6.70;84.10;;;;;;5041011;28;20052;-69
2022/02/04 06:23:20;;;;;;;4.50;2.00;;;6.70;84.10;;;;;;3291248;28;10002152;-68
2022/02/04 06:25:47;;;;;;;5.07;2.15;;;6.80;84.10;;;;;;5027728;28;20585;-69
2022/02/04 06:28:16;;;;;;;4.15;1.88;;;6.80;84.10;;;;;;5026520;28;20540;-70
2022/02/04 06:30:45;;;;;;;5.78;2.08;;;6.80;84.20;;;;;;5021952;28;20048;-69
2022/02/04 06:33:13;;;;;;;4.90;1.90;;;6.70;84.30;;;;;;5029290;28;20048;-69
2022/02/04 06:35:56;;;;;;;6.05;2.58;;;6.70;84.40;;;;;;5027688;28;20155;-69
2022/02/04 06:38:23;;;;;;;5.82;2.10;;;6.80;84.40;;;;;;5027404;28;20041;-70
2022/02/04 06:40:50;;;;;;;3.92;1.73;;;6.80;84.50;;;;;;5026370;28;20503;-69
2022/02/04 06:43:17;;;;;;;4.63;1.95;;;6.80;84.60;;;;;;5028265;28;20055;-68
2022/02/04 06:45:44;;;;;;;5.18;1.90;;;6.70;84.70;;;;;;5026188;28;20051;-68
2022/02/04 06:48:11;;;;;;;4.57;1.77;;;6.70;84.80;;;;;;5025924;28;20040;-70
2022/02/04 06:50:38;;;;;;;7.00;2.80;;;6.70;84.90;;;;;;5024827;28;20052;-71
2022/02/04 06:53:08;;;;;;;6.35;2.28;;;6.70;85.10;;;;;;5019925;28;20040;-68
2022/02/04 06:55:35;;;;;;;5.82;1.90;;;6.70;85.20;;;;;;5025259;28;20522;-69
2022/02/04 06:58:02;;;;;;;7.20;3.38;;;6.80;85.30;;;;;;5027639;28;20057;-69
2022/02/04 07:00:29;;;;;;;5.28;2.53;;;6.70;85.40;;;;;;5025509;28;20053;-69
2022/02/04 07:02:57;;;;;;;6.63;2.80;;;6.70;85.50;;;;;;5025257;28;20223;-69
2022/02/04 07:05:24;;;;;;;5.28;2.35;;;6.70;85.70;;;;;;5026258;28;20645;-69
2022/02/04 07:08:01;;;;;;;6.35;2.85;;;6.70;85.80;;;;;;5021488;28;20073;-67
2022/02/04 07:10:38;;;;;;;6.55;2.90;;;6.70;85.90;;;;;;5029375;28;20127;-69
2022/02/04 07:13:14;;;;;;;7.25;3.20;;;6.70;85.90;;;;;;5035165;28;20124;-69
2022/02/04 07:15:50;;;;;;;5.53;2.53;;;6.70;86.00;;;;;;5006865;28;20049;-68
2022/02/04 07:21:07;;;;;;;6.85;2.88;;;6.70;86.00;;;;;;4987256;28;20172;-69
2022/02/04 07:23:36;;;;;;;6.88;3.13;;;6.70;86.10;;;;;;5026599;28;20206;-68
2022/02/04 07:26:05;;;;;;;5.93;2.50;;;6.70;86.20;;;;;;5027390;28;20045;-69
2022/02/04 07:28:32;;;;;;;9.95;3.47;;;6.80;86.20;;;;;;5040233;28;20049;-68
2022/02/04 07:31:01;;;;;;;6.85;3.05;;;6.80;86.30;;;;;;5027779;28;20056;-69
2022/02/04 07:33:41;;;;;;;9.02;3.22;;;6.80;86.30;;;;;;5025614;28;20045;-69
2022/02/04 07:41:35;;;;;;;9.00;3.40;;;6.70;86.60;;;;;;5008860;28;20517;-69
2022/02/04 07:44:02;;;;;;;7.65;3.72;;;6.70;86.70;;;;;;5026131;28;20045;-69
2022/02/04 07:46:30;;;;;;;7.50;3.42;;;6.70;86.70;;;;;;5030934;28;20056;-67
2022/02/04 07:48:57;;;;;;;9.43;3.55;;;6.70;86.70;;;;;;5029612;28;20053;-69
2022/02/04 07:51:24;;;;;;;7.75;3.15;;;6.70;86.70;;;;;;5029140;28;20041;-69
2022/02/04 07:53:51;;;;;;;8.13;3.42;;;6.70;86.70;;;;;;5031405;28;20044;-68
2022/02/04 07:56:23;;;;;;;7.55;3.20;;;6.70;86.60;;;;;;5030455;28;20591;-68
2022/02/04 07:58:57;;;;;;;7.32;3.30;;;6.70;86.60;;;;;;5032122;28;20060;-68
2022/02/04 08:01:28;;;;;;;8.35;3.03;;;6.80;86.60;;;;;;5026086;28;20504;-68
2022/02/04 08:04:03;;;;;;;6.13;2.47;;;6.70;86.70;;;;;;5027337;28;20660;-69
2022/02/04 08:06:35;;;;;;;10.00;3.65;;;6.70;86.70;;;;;;5028372;28;20116;-69
2022/02/04 08:09:10;;;;;;;8.20;3.53;;;6.80;86.70;;;;;;5027051;28;20048;-68
2022/02/04 08:12:02;;;;;;;6.47;2.78;;;6.70;86.60;;;;;;5028036;28;20493;-70
2022/02/04 08:20:36;;;;;;;5.10;2.41;;;6.80;86.60;;;;;;4072983;28;10148963;-69
2022/02/04 08:26:05;;;;;;;6.45;3.08;;;6.90;86.60;;;;;;5048232;28;22385;-68
2022/02/04 08:34:47;;;;;;;6.72;3.17;;;6.90;86.60;;;;;;5038024;28;21521;-68
2022/02/04 08:51:26;;;;;;;6.63;2.83;;;6.90;86.60;;;;;;5052091;28;20049;-68
2022/02/04 08:54:09;;;;;;;7.22;3.35;;;6.90;86.50;;;;;;5052811;28;20043;-69
2022/02/04 08:56:44;;;;;;;6.57;3.22;;;7.00;86.40;;;;;;5049882;28;20641;-69
2022/02/04 08:59:28;;;;;;;6.20;3.00;;;7.00;86.40;;;;;;5052092;28;20731;-68
2022/02/04 09:02:01;;;;;;;8.65;2.50;;;7.00;86.30;;;;;;5053269;28;20051;-65
2022/02/04 09:04:39;;;;;;;6.45;2.80;;;7.00;86.30;;;;;;5051828;28;20052;-65
2022/02/04 09:07:09;;;;;;;5.88;2.50;;;7.00;86.30;;;;;;5049727;28;20052;-64
2022/02/04 09:09:54;;;;;;;7.00;2.60;;;7.00;86.30;;;;;;5048939;28;20070;-64
2022/02/04 09:18:34;;;;;;;7.25;2.67;;;7.10;86.10;;;;;;5047534;28;20062;-65
2022/02/04 09:23:39;;;;;;;6.22;2.53;;;7.10;86.10;;;;;;5047933;28;20088;-64
2022/02/04 09:26:07;;;;;;;6.95;2.58;;;7.10;86.00;;;;;;5049962;28;20521;-64
2022/02/04 09:28:35;;;;;;;6.18;2.67;;;7.10;86.10;;;;;;5050368;28;20128;-65
2022/02/04 09:31:03;;;;;;;6.57;2.90;;;7.10;86.00;;;;;;5049022;28;20056;-63
2022/02/04 09:33:30;;;;;;;6.25;2.78;;;7.10;85.90;;;;;;5026782;28;20067;-64
2022/02/04 09:35:58;;;;;;;6.30;2.70;;;7.10;85.90;;;;;;5050256;28;20502;-65
2022/02/04 09:38:27;;;;;;;5.93;2.15;;;7.20;85.90;;;;;;5047587;28;20047;-66
2022/02/04 09:40:55;;;;;;;5.43;2.28;;;7.20;85.70;;;;;;5047556;28;20032;-66
2022/02/04 09:43:22;;;;;;;9.15;3.38;;;7.20;85.70;;;;;;5047923;28;20049;-64
2022/02/04 09:45:49;;;;;;;5.47;2.70;;;7.20;85.70;;;;;;5047211;28;20486;-65
2022/02/04 09:48:16;;;;;;;5.57;2.70;;;7.20;85.60;;;;;;5049850;28;20090;-66
2022/02/04 09:50:46;;;;;;;7.68;2.83;;;7.20;85.60;;;;;;5048475;28;20048;-66
2022/02/04 10:04:52;;;;;;;5.60;2.08;;;7.20;85.40;;;;;;5050875;28;20574;-67
2022/02/04 10:07:37;;;;;;;4.57;2.08;;;7.20;85.40;;;;;;5044608;28;20052;-66
2022/02/04 10:15:58;;;;;;;4.93;2.08;;;7.30;85.30;;;;;;5046507;28;20103;-65
2022/02/04 10:18:32;;;;;;;5.03;2.40;;;7.20;85.40;;;;;;5015043;28;20050;-66
2022/02/04 10:21:19;;;;;;;6.04;2.41;;;7.20;85.50;;;;;;3019223;28;10218438;-65
2022/02/04 10:23:48;;;;;;;6.38;2.65;;;7.20;85.50;;;;;;2945473;28;10002379;-65
2022/02/04 10:26:17;;;;;;;5.32;2.38;;;7.30;85.50;;;;;;5026532;28;20043;-64
2022/02/04 10:28:45;;;;;;;5.28;2.70;;;7.20;85.50;;;;;;5024049;28;20136;-65
2022/02/04 10:31:18;;;;;;;6.22;2.22;;;7.20;85.60;;;;;;5023827;28;20072;-66
2022/02/04 10:34:00;;;;;;;6.30;2.33;;;7.30;85.60;;;;;;5028566;28;20040;-66
2022/02/04 10:36:46;;;;;;;5.95;2.28;;;7.30;85.60;;;;;;5025165;28;20079;-65
2022/02/04 10:39:54;;;;;;;4.70;2.15;;;7.30;85.60;;;;;;5027027;28;20882;-67
2022/02/04 10:42:32;;;;;;;7.38;2.25;;;7.30;85.40;;;;;;5030479;28;20186;-65
2022/02/04 10:45:28;;;;;;;9.02;2.70;;;7.30;85.40;;;;;;5028395;28;20063;-66
2022/02/04 10:48:26;;;;;;;6.13;2.65;;;7.30;85.50;;;;;;5026447;28;20076;-66
2022/02/04 10:53:53;;;;;;;4.35;1.77;;;7.40;85.20;;;;;;5025756;28;20041;-65
2022/02/04 10:59:28;;;;;;;3.05;1.42;;;7.50;84.90;;;;;;5024493;28;20072;-65
2022/02/04 11:02:11;;;;;;;2.85;1.45;;;7.50;84.80;;;;;;5027470;28;20422;-65
2022/02/04 11:04:47;;;;;;;3.28;1.65;;;7.50;84.80;;;;;;5028761;28;20047;-64
2022/02/04 11:10:10;;;;;;;3.13;1.55;;;7.50;84.60;;;;;;5024778;28;20053;-65
2022/02/04 11:35:15;;;;;;;2.95;1.33;;;7.70;84.50;;;;;;5026407;28;20049;-64
2022/02/04 11:52:37;;;;;;;4.22;1.20;;;7.70;84.30;;;;;;5028585;28;20050;-66
2022/02/04 11:55:33;;;;;;;3.60;1.60;;;7.70;84.30;;;;;;5029559;28;20064;-64
2022/02/04 11:58:03;;;;;;;2.85;1.80;;;7.70;84.10;;;;;;5029991;28;20068;-65
2022/02/04 12:00:33;;;;;;;2.28;1.10;;;7.70;83.90;;;;;;5026071;28;20127;-64
2022/02/04 12:03:00;;;;;;;2.60;1.20;;;7.70;83.90;;;;;;5036508;28;20119;-65
2022/02/04 12:05:33;;;;;;;7.40;1.33;;;7.80;83.70;;;;;;5036415;28;20052;-64
2022/02/04 12:08:34;;;;;;;5.88;1.20;;;7.80;83.80;;;;;;5034336;28;20075;-65
2022/02/04 12:11:11;;;;;;;2.70;1.10;;;7.70;83.60;;;;;;5036143;28;20041;-65
2022/02/04 12:14:10;;;;;;;3.35;1.20;;;7.70;83.70;;;;;;5037034;28;20071;-65
2022/02/04 12:17:05;;;;;;;2.65;1.42;;;7.70;83.70;;;;;;5037403;28;20128;-66
2022/02/04 12:19:37;;;;;;;2.92;1.05;;;7.70;83.70;;;;;;4976207;28;20131;-65
2022/02/04 12:22:09;;;;;;;3.90;1.20;;;7.70;83.60;;;;;;1364171;28;10022884;-64
2022/02/04 12:24:41;;;;;;;2.45;1.10;;;7.70;83.50;;;;;;4012289;28;10001504;-65
2022/02/04 12:27:37;;;;;;;1.80;0.93;;;7.70;83.50;;;;;;5062610;28;20040;-65
2022/02/04 12:30:33;;;;;;;2.20;1.08;;;7.70;83.60;;;;;;5061978;28;20133;-64
2022/02/04 12:33:01;;;;;;;2.45;0.95;;;7.70;83.70;;;;;;5023039;28;20064;-64
2022/02/04 12:35:30;;;;;;;1.73;0.90;;;7.70;83.70;;;;;;5059164;28;20051;-66
2022/02/04 12:37:59;;;;;;;3.25;1.25;;;7.80;83.70;;;;;;5055509;28;20258;-66
2022/02/04 12:40:26;;;;;;;3.92;1.08;;;7.70;83.90;;;;;;5058733;28;20048;-65
2022/02/04 12:42:53;;;;;;;1.90;0.95;;;7.80;83.90;;;;;;5058839;28;20167;-65
2022/02/04 12:45:21;;;;;;;3.08;1.10;;;7.80;83.70;;;;;;5058518;28;20526;-65
2022/02/04 12:47:53;;;;;;;5.03;1.20;;;7.70;83.70;;;;;;5060277;28;20048;-67
2022/02/04 12:50:24;;;;;;;1.45;0.70;;;7.70;83.70;;;;;;5038064;28;20049;-65
2022/02/04 12:52:51;;;;;;;2.28;0.80;;;7.70;83.50;;;;;;5056032;28;20055;-65
2022/02/04 12:55:26;;;;;;;2.30;0.90;;;7.70;83.40;;;;;;5057323;28;20037;-65
2022/02/04 12:58:11;;;;;;;3.13;0.88;;;7.70;83.30;;;;;;5053686;28;20426;-65
2022/02/04 13:03:31;;;;;;;2.53;1.15;;;7.80;83.20;;;;;;5038379;28;20080;-66
2022/02/04 13:08:46;;;;;;;3.35;0.88;;;7.80;83.10;;;;;;5035645;28;20049;-65
2022/02/04 13:11:17;;;;;;;1.23;0.60;;;7.80;83.00;;;;;;5037172;28;20049;-65
2022/02/04 13:13:48;;;;;;;2.15;1.00;;;7.80;82.90;;;;;;5037265;28;20153;-66
2022/02/04 13:16:16;;;;;;;;;;;7.80;82.90;;;;;;5069684;28;20100;-66
2022/02/04 13:18:43;;;;;;;1.75;0.73;;;7.80;82.80;;;;;;5036639;28;19924;-66
2022/02/04 13:21:14;;;;;;;1.65;0.65;;;7.80;82.60;;;;;;5032297;28;20056;-64
2022/02/04 13:23:42;;;;;;;3.70;0.63;;;7.80;82.50;;;;;;5036249;28;20863;-65
2022/02/04 13:26:09;;;;;;;2.70;0.68;;;7.80;82.50;;;;;;5036117;28;20088;-64
2022/02/04 13:28:39;;;;;;;1.98;1.17;;;7.90;82.30;;;;;;5036358;28;20383;-65
2022/02/04 13:31:08;;;;;;;1.83;0.90;;;7.80;82.20;;;;;;5036517;28;20060;-66
2022/02/04 13:33:42;;;;;;;1.80;0.70;;;7.80;82.20;;;;;;5035501;28;20041;-65
2022/02/04 13:36:21;;;;;;;1.23;0.60;;;7.80;82.20;;;;;;5032842;28;20065;-65
2022/02/04 13:38:55;;;;;;;3.10;0.77;;;7.80;82.10;;;;;;5033349;28;20191;-63
2022/02/04 13:41:35;;;;;;;1.55;0.50;;;7.80;81.80;;;;;;5012553;28;20061;-65
2022/02/04 13:44:29;;;;;;;2.38;0.95;;;7.80;81.80;;;;;;5032569;28;20045;-65
2022/02/04 13:47:11;;;;;;;1.27;0.47;;;7.80;81.80;;;;;;5033293;28;20047;-66
2022/02/04 13:49:59;;;;;;;1.67;0.50;;;7.80;81.60;;;;;;5031749;28;20840;-66
2022/02/04 13:52:45;;;;;;;2.30;0.68;;;7.80;81.40;;;;;;5032308;28;20653;-64
2022/02/04 13:55:28;;;;;;;1.73;0.80;;;7.80;81.60;;;;;;5034547;28;20124;-65
2022/02/04 13:58:10;;;;;;;1.50;0.55;;;7.80;81.70;;;;;;5041519;28;20140;-65
2022/02/04 14:00:48;;;;;;;2.28;0.60;;;7.80;81.50;;;;;;5052125;28;20055;-66
2022/02/04 14:03:19;;;;;;;1.40;0.55;;;7.80;81.50;;;;;;5053721;28;20086;-65
2022/02/04 14:05:52;;;;;;;0.98;0.47;;;7.80;81.30;;;;;;5041613;28;20051;-66
2022/02/04 14:08:31;;;;;;;1.30;0.45;;;7.80;81.20;;;;;;5047811;28;20040;-66
2022/02/04 14:11:03;;;;;;;1.25;0.50;;;7.80;81.00;;;;;;5051748;28;20101;-65
2022/02/04 14:13:31;;;;;;;1.65;0.35;;;7.80;81.00;;;;;;5055935;28;20047;-65
2022/02/04 14:16:01;;;;;;;2.00;0.60;;;7.80;80.90;;;;;;5054701;28;20147;-66
2022/02/04 14:18:32;;;;;;;2.20;0.50;;;7.80;80.90;;;;;;5016869;28;20037;-68
2022/02/04 14:21:16;;;;;;;0.50;0.39;;;7.80;80.70;;;;;;1155048;28;10023997;-65
2022/02/04 14:23:46;;;;;;;3.75;0.60;;;7.80;80.60;;;;;;4688226;28;10001352;-66
2022/02/04 14:26:21;;;;;;;1.83;0.68;;;7.80;80.40;;;;;;5035771;28;20048;-65
2022/02/04 14:28:52;;;;;;;0.82;0.50;;;7.80;80.40;;;;;;5036311;28;20037;-64
2022/02/04 14:31:28;;;;;;;1.35;0.52;;;7.80;80.30;;;;;;5035574;28;20051;-64
2022/02/04 14:34:40;;;;;;;2.33;0.73;;;7.70;80.40;;;;;;5035334;28;20154;-65
2022/02/04 14:37:04;;;;;;;1.67;0.70;;;7.80;80.50;;;;;;5036299;28;20052;-65
2022/02/04 14:53:23;;;;;;;1.58;0.60;;;7.70;81.30;;;;;;5033629;28;20319;-66
2022/02/04 14:58:46;;;;;;;1.60;0.65;;;7.70;81.40;;;;;;5032749;28;20053;-67
2022/02/04 15:01:20;;;;;;;1.23;0.50;;;7.70;81.50;;;;;;5030404;28;20514;-66
2022/02/04 15:04:00;;;;;;;1.67;0.60;;;7.70;81.50;;;;;;5033750;28;20051;-65
2022/02/04 15:06:31;;;;;;;3.58;1.27;;;7.70;81.50;;;;;;5031705;28;20048;-65
2022/02/04 15:08:58;;;;;;;2.00;0.60;;;7.70;81.50;;;;;;5034052;28;20118;-66
2022/02/04 15:11:30;;;;;;;1.42;0.68;;;7.70;81.40;;;;;;5034022;28;20420;-66
2022/02/04 15:13:58;;;;;;;1.17;0.68;;;7.70;81.50;;;;;;5034264;28;21636;-65
2022/02/04 15:16:26;;;;;;;1.25;0.50;;;7.70;81.50;;;;;;5033350;28;20100;-66
2022/02/04 15:18:55;;;;;;;0.80;0.45;;;7.70;81.60;;;;;;5033894;28;20126;-65
2022/02/04 15:21:23;;;;;;;1.55;0.40;;;7.70;81.70;;;;;;5035392;28;20044;-66
2022/02/04 15:23:53;;;;;;;2.22;0.60;;;7.70;81.70;;;;;;5034275;28;21708;-65
2022/02/04 15:26:21;;;;;;;1.80;0.70;;;7.70;81.80;;;;;;5034729;28;20927;-65
2022/02/04 15:28:51;;;;;;;1.00;0.38;;;7.60;81.90;;;;;;5034863;28;20100;-65
2022/02/04 15:31:30;;;;;;;0.47;0.40;;;7.60;82.10;;;;;;5035481;28;20052;-65
2022/02/04 15:33:59;;;;;;;1.00;0.35;;;7.60;82.00;;;;;;5035246;28;20495;-65
2022/02/04 15:36:28;;;;;;;1.75;0.68;;;7.60;82.10;;;;;;5034411;28;20049;-66
2022/02/04 15:38:55;;;;;;;0.45;0.35;;;7.60;82.10;;;;;;5034113;28;20049;-65
2022/02/04 15:41:24;;;;;;;0.70;0.20;;;7.60;82.20;;;;;;5033709;28;20047;-65
2022/02/04 15:43:55;;;;;;;0.50;0.30;;;7.70;82.30;;;;;;5034524;28;20052;-65
2022/02/04 15:52:23;;;;;;;2.20;0.75;;;7.60;82.80;;;;;;5033683;28;20063;-65
2022/02/04 15:57:40;;;;;;;1.80;0.43;;;7.60;83.00;;;;;;5002318;28;20088;-64
2022/02/04 16:05:56;;;;;;;6.53;3.35;;;7.50;83.40;;;;;;5024507;28;20137;-65
2022/02/04 16:08:23;;;;;;;5.97;3.00;;;7.40;83.50;;;;;;5036447;28;20056;-66
2022/02/04 16:10:54;;;;;;;4.38;2.05;;;7.40;83.60;;;;;;5040247;28;20154;-64
2022/02/04 16:16:19;;;;;;;6.93;2.55;;;7.50;83.70;;;;;;5038572;28;20511;-65
2022/02/04 16:18:59;;;;;;;5.07;2.00;;;7.50;83.70;;;;;;4983249;28;20630;-68
2022/02/04 16:21:34;;;;;;;2.80;1.60;;;7.50;83.80;;;;;;309979;28;10023584;-66
2022/02/04 16:24:03;;;;;;;3.28;1.60;;;7.50;83.70;;;;;;5035930;28;20175;-65
2022/02/04 16:26:50;;;;;;;2.72;1.42;;;7.50;83.70;;;;;;5035836;28;20037;-65
2022/02/04 16:29:17;;;;;;;3.95;1.50;;;7.50;83.70;;;;;;5035357;28;20517;-66
2022/02/04 16:31:48;;;;;;;2.67;1.75;;;7.50;83.70;;;;;;5035671;28;21689;-67
2022/02/04 16:34:16;;;;;;;8.13;2.55;;;7.40;83.70;;;;;;5035791;28;20148;-65
2022/02/04 16:36:48;;;;;;;9.18;3.40;;;7.40;83.90;;;;;;5035726;28;20036;-65
2022/02/04 16:39:18;;;;;;;11.38;5.90;;;7.40;83.90;;;;;;5035242;28;20058;-65
2022/02/04 16:41:51;;;;;;;11.75;5.03;;;7.50;83.80;;;;;;5036298;28;20402;-65
2022/02/04 16:44:19;;;;;;;7.80;3.45;;;7.50;83.90;;;;;;5048287;28;20044;-66
2022/02/04 16:46:47;;;;;;;6.55;2.78;;;7.50;83.90;;;;;;5036317;28;20044;-65
2022/02/04 16:49:20;;;;;;;7.05;3.40;;;7.40;83.90;;;;;;5035536;28;20048;-64
2022/02/04 16:51:49;;;;;;;6.63;3.15;;;7.40;83.90;;;;;;5034398;28;20477;-65
2022/02/04 16:54:18;;;;;;;4.78;2.08;;;7.40;83.90;;;;;;5034507;28;20056;-65
2022/02/04 16:56:46;;;;;;;3.70;1.63;;;7.40;83.90;;;;;;5034350;28;20049;-65
2022/02/04 16:59:13;;;;;;;4.35;2.45;;;7.40;83.90;;;;;;5035066;28;20057;-65
2022/02/04 17:01:41;;;;;;;3.08;1.25;;;7.50;83.80;;;;;;5015726;28;20122;-66
2022/02/04 17:04:08;;;;;;;5.05;1.67;;;7.40;83.80;;;;;;5035590;28;20045;-67
2022/02/04 17:06:38;;;;;;;5.47;1.98;;;7.50;83.70;;;;;;5035098;28;20128;-65
2022/02/04 17:09:22;;;;;;;2.85;1.15;;;7.50;83.70;;;;;;5035073;28;20045;-66
2022/02/04 17:12:01;;;;;;;2.40;0.98;;;7.50;83.50;;;;;;5030154;28;20052;-66
2022/02/04 17:14:34;;;;;;;4.18;1.67;;;7.50;83.40;;;;;;5026293;28;20049;-65
2022/02/04 17:17:03;;;;;;;2.13;1.02;;;7.50;83.30;;;;;;5029195;28;20076;-65
2022/02/04 17:19:37;;;;;;;2.05;0.73;;;7.50;83.20;;;;;;5030895;28;20067;-66
2022/02/04 17:22:06;;;;;;;2.55;0.82;;;7.50;83.20;;;;;;5027854;28;20052;-63
2022/02/04 17:24:34;;;;;;;2.22;0.70;;;7.50;83.10;;;;;;5027674;28;20429;-67
2022/02/04 17:27:02;;;;;;;0.73;0.50;;;7.60;83.00;;;;;;5031818;28;20045;-66
2022/02/04 17:29:30;;;;;;;2.10;0.88;;;7.60;82.90;;;;;;5041087;28;20091;-66
2022/02/04 17:31:57;;;;;;;1.88;0.80;;;7.60;82.90;;;;;;5040949;28;20096;-66
2022/02/04 17:34:25;;;;;;;1.25;0.75;;;7.60;82.90;;;;;;5036889;28;20045;-67
2022/02/04 17:36:52;;;;;;;1.65;0.60;;;7.60;82.90;;;;;;5034893;28;20392;-65
2022/02/04 17:39:22;;;;;;;2.58;0.88;;;7.60;82.90;;;;;;5034478;28;20124;-65
2022/02/04 17:41:54;;;;;;;1.77;0.85;;;7.60;82.90;;;;;;5035890;28;20091;-66
2022/02/04 17:44:22;;;;;;;1.88;0.70;;;7.60;83.00;;;;;;5034582;28;20052;-65
2022/02/04 17:46:50;;;;;;;2.50;0.90;;;7.60;82.90;;;;;;5035734;28;20087;-66
2022/02/04 17:49:22;;;;;;;1.48;0.80;;;7.70;82.90;;;;;;5034465;28;20043;-67
2022/02/04 17:51:54;;;;;;;1.70;0.80;;;7.60;83.10;;;;;;5035568;28;20076;-65